Terminal Aerodrome Forecast
Issued by NWS

Home | Current Version | Previous Version | Text Only | Print | Product List | Glossary On
Versions: 1 2 3 4 5 6 7 8 9 10 11 12 13 14 15 16 17 18 19 20 21 22 23 24 25
201
FTUS43 KILX 192333 AAB
TAFBMI
TAF AMD
KBMI 192333Z 2000/2024 10007KT 2SM -SHRA BR OVC004
     FM200900 00000KT 1/4SM FG VCSH OVC001
     FM201600 17004KT 1 1/2SM -DZ BR OVC003
     FM201800 19005KT 3SM BR OVC008=

USA.gov is the U.S. government's official web portal to all federal, state and local government web resources and services.